sensor_id;sensor_type;location;lat;lon;timestamp;temperature;humidity
19242;DHT22;9755;47.790;9.620;2022-08-03T00:01:05;17.30;99.90
19242;DHT22;9755;47.790;9.620;2022-08-03T00:03:32;17.10;99.90
19242;DHT22;9755;47.790;9.620;2022-08-03T00:05:59;17.00;99.90
19242;DHT22;9755;47.790;9.620;2022-08-03T00:08:28;17.00;99.90
19242;DHT22;9755;47.790;9.620;2022-08-03T00:10:55;17.00;99.90
19242;DHT22;9755;47.790;9.620;2022-08-03T00:13:22;16.90;99.90
19242;DHT22;9755;47.790;9.620;2022-08-03T00:15:49;16.90;99.90
19242;DHT22;9755;47.790;9.620;2022-08-03T00:18:16;17.00;99.90
19242;DHT22;9755;47.790;9.620;2022-08-03T00:20:43;16.80;99.90
19242;DHT22;9755;47.790;9.620;2022-08-03T00:23:11;16.70;99.90
19242;DHT22;9755;47.790;9.620;2022-08-03T00:25:39;16.60;99.90
19242;DHT22;9755;47.790;9.620;2022-08-03T00:28:06;16.70;99.90
19242;DHT22;9755;47.790;9.620;2022-08-03T00:30:33;16.80;99.90
19242;DHT22;9755;47.790;9.620;2022-08-03T00:33:01;16.70;99.90
19242;DHT22;9755;47.790;9.620;2022-08-03T00:35:28;16.70;99.90
19242;DHT22;9755;47.790;9.620;2022-08-03T00:37:57;16.90;99.90
19242;DHT22;9755;47.790;9.620;2022-08-03T00:40:24;16.90;99.90
19242;DHT22;9755;47.790;9.620;2022-08-03T00:42:54;16.90;99.90
19242;DHT22;9755;47.790;9.620;2022-08-03T00:45:23;16.80;99.90
19242;DHT22;9755;47.790;9.620;2022-08-03T00:47:50;16.90;99.90
19242;DHT22;9755;47.790;9.620;2022-08-03T00:50:18;16.90;99.90
19242;DHT22;9755;47.790;9.620;2022-08-03T00:52:47;16.90;99.90
19242;DHT22;9755;47.790;9.620;2022-08-03T00:55:15;16.70;99.90
19242;DHT22;9755;47.790;9.620;2022-08-03T00:57:43;16.60;99.90
19242;DHT22;9755;47.790;9.620;2022-08-03T01:00:14;16.50;99.90
19242;DHT22;9755;47.790;9.620;2022-08-03T01:02:41;16.60;99.90
19242;DHT22;9755;47.790;9.620;2022-08-03T01:05:08;16.70;99.90
19242;DHT22;9755;47.790;9.620;2022-08-03T01:07:41;16.70;99.90
19242;DHT22;9755;47.790;9.620;2022-08-03T01:10:17;16.70;99.90
19242;DHT22;9755;47.790;9.620;2022-08-03T01:12:53;16.70;99.90
19242;DHT22;9755;47.790;9.620;2022-08-03T01:15:31;16.70;99.90
19242;DHT22;9755;47.790;9.620;2022-08-03T01:18:07;16.70;99.90
19242;DHT22;9755;47.790;9.620;2022-08-03T01:20:38;16.60;99.90
19242;DHT22;9755;47.790;9.620;2022-08-03T01:23:24;16.40;99.90
19242;DHT22;9755;47.790;9.620;2022-08-03T01:26:10;16.20;99.90
19242;DHT22;9755;47.790;9.620;2022-08-03T01:28:54;16.30;99.90
19242;DHT22;9755;47.790;9.620;2022-08-03T01:31:30;16.30;99.90
19242;DHT22;9755;47.790;9.620;2022-08-03T01:34:01;16.20;99.90
19242;DHT22;9755;47.790;9.620;2022-08-03T01:36:33;16.30;99.90
19242;DHT22;9755;47.790;9.620;2022-08-03T01:39:03;16.30;99.90
19242;DHT22;9755;47.790;9.620;2022-08-03T01:41:38;16.30;99.90
19242;DHT22;9755;47.790;9.620;2022-08-03T01:44:08;16.30;99.90
19242;DHT22;9755;47.790;9.620;2022-08-03T01:46:37;16.20;99.90
19242;DHT22;9755;47.790;9.620;2022-08-03T01:49:07;16.10;99.90
19242;DHT22;9755;47.790;9.620;2022-08-03T01:51:37;16.00;99.90
19242;DHT22;9755;47.790;9.620;2022-08-03T01:54:08;16.00;99.90
19242;DHT22;9755;47.790;9.620;2022-08-03T01:56:36;16.00;99.90
19242;DHT22;9755;47.790;9.620;2022-08-03T01:59:04;16.00;99.90
19242;DHT22;9755;47.790;9.620;2022-08-03T02:01:34;16.00;99.90
19242;DHT22;9755;47.790;9.620;2022-08-03T02:04:04;15.90;99.90
19242;DHT22;9755;47.790;9.620;2022-08-03T02:06:32;15.90;99.90
19242;DHT22;9755;47.790;9.620;2022-08-03T02:09:01;15.80;99.90
19242;DHT22;9755;47.790;9.620;2022-08-03T02:11:30;15.80;99.90
19242;DHT22;9755;47.790;9.620;2022-08-03T02:14:00;15.90;99.90
19242;DHT22;9755;47.790;9.620;2022-08-03T02:16:30;16.00;99.90
19242;DHT22;9755;47.790;9.620;2022-08-03T02:19:00;15.90;99.90
19242;DHT22;9755;47.790;9.620;2022-08-03T02:21:31;15.90;99.90
19242;DHT22;9755;47.790;9.620;2022-08-03T02:23:59;15.90;99.90
19242;DHT22;9755;47.790;9.620;2022-08-03T02:26:28;16.00;99.90
19242;DHT22;9755;47.790;9.620;2022-08-03T02:29:00;16.00;99.90
19242;DHT22;9755;47.790;9.620;2022-08-03T02:31:33;15.90;99.90
19242;DHT22;9755;47.790;9.620;2022-08-03T02:34:03;16.00;99.90
19242;DHT22;9755;47.790;9.620;2022-08-03T02:36:36;16.10;99.90
19242;DHT22;9755;47.790;9.620;2022-08-03T02:39:05;16.00;99.90
19242;DHT22;9755;47.790;9.620;2022-08-03T02:41:36;16.00;99.90
19242;DHT22;9755;47.790;9.620;2022-08-03T02:44:10;16.00;99.90
19242;DHT22;9755;47.790;9.620;2022-08-03T02:46:40;16.00;99.90
19242;DHT22;9755;47.790;9.620;2022-08-03T02:49:11;16.00;99.90
19242;DHT22;9755;47.790;9.620;2022-08-03T02:51:40;16.00;99.90
19242;DHT22;9755;47.790;9.620;2022-08-03T02:54:08;15.90;99.90
19242;DHT22;9755;47.790;9.620;2022-08-03T02:56:37;15.90;99.90
19242;DHT22;9755;47.790;9.620;2022-08-03T02:59:05;15.80;99.90
19242;DHT22;9755;47.790;9.620;2022-08-03T03:01:33;15.80;99.90
19242;DHT22;9755;47.790;9.620;2022-08-03T03:04:00;15.80;99.90
19242;DHT22;9755;47.790;9.620;2022-08-03T03:06:28;15.70;99.90
19242;DHT22;9755;47.790;9.620;2022-08-03T03:08:58;15.50;99.90
19242;DHT22;9755;47.790;9.620;2022-08-03T03:11:25;15.50;99.90
19242;DHT22;9755;47.790;9.620;2022-08-03T03:13:54;15.40;99.90
19242;DHT22;9755;47.790;9.620;2022-08-03T03:16:22;15.30;99.90
19242;DHT22;9755;47.790;9.620;2022-08-03T03:18:51;15.20;99.90
19242;DHT22;9755;47.790;9.620;2022-08-03T03:21:20;15.30;99.90
19242;DHT22;9755;47.790;9.620;2022-08-03T03:23:48;15.30;99.90
19242;DHT22;9755;47.790;9.620;2022-08-03T03:26:17;15.30;99.90
19242;DHT22;9755;47.790;9.620;2022-08-03T03:28:45;15.40;99.90
19242;DHT22;9755;47.790;9.620;2022-08-03T03:31:12;15.40;99.90
19242;DHT22;9755;47.790;9.620;2022-08-03T03:33:39;15.30;99.90
19242;DHT22;9755;47.790;9.620;2022-08-03T03:36:08;15.20;99.90
19242;DHT22;9755;47.790;9.620;2022-08-03T03:38:36;15.10;99.90
19242;DHT22;9755;47.790;9.620;2022-08-03T03:41:04;15.10;99.90
19242;DHT22;9755;47.790;9.620;2022-08-03T03:43:33;15.10;99.90
19242;DHT22;9755;47.790;9.620;2022-08-03T03:46:01;15.10;99.90
19242;DHT22;9755;47.790;9.620;2022-08-03T03:48:28;15.10;99.90
19242;DHT22;9755;47.790;9.620;2022-08-03T03:50:55;15.20;99.90
19242;DHT22;9755;47.790;9.620;2022-08-03T03:53:24;15.10;99.90
19242;DHT22;9755;47.790;9.620;2022-08-03T03:55:51;15.10;99.90
19242;DHT22;9755;47.790;9.620;2022-08-03T03:58:19;15.10;99.90
19242;DHT22;9755;47.790;9.620;2022-08-03T04:00:48;15.10;99.90
19242;DHT22;9755;47.790;9.620;2022-08-03T04:03:15;15.10;99.90
19242;DHT22;9755;47.790;9.620;2022-08-03T04:05:42;15.10;99.90
19242;DHT22;9755;47.790;9.620;2022-08-03T04:08:27;15.10;99.90
19242;DHT22;9755;47.790;9.620;2022-08-03T04:11:15;15.10;99.90
19242;DHT22;9755;47.790;9.620;2022-08-03T04:13:48;15.00;99.90
19242;DHT22;9755;47.790;9.620;2022-08-03T04:16:19;14.90;99.90
19242;DHT22;9755;47.790;9.620;2022-08-03T04:18:50;15.00;99.90
19242;DHT22;9755;47.790;9.620;2022-08-03T04:21:19;15.10;99.90
19242;DHT22;9755;47.790;9.620;2022-08-03T04:23:50;15.20;99.90
19242;DHT22;9755;47.790;9.620;2022-08-03T04:26:20;15.30;99.90
19242;DHT22;9755;47.790;9.620;2022-08-03T04:28:48;15.40;99.90
19242;DHT22;9755;47.790;9.620;2022-08-03T04:31:20;15.30;99.90
19242;DHT22;9755;47.790;9.620;2022-08-03T04:33:48;15.40;99.90
19242;DHT22;9755;47.790;9.620;2022-08-03T04:36:18;15.30;99.90
19242;DHT22;9755;47.790;9.620;2022-08-03T04:38:54;15.30;99.90
19242;DHT22;9755;47.790;9.620;2022-08-03T04:41:26;15.40;99.90
19242;DHT22;9755;47.790;9.620;2022-08-03T04:43:55;15.50;99.90
19242;DHT22;9755;47.790;9.620;2022-08-03T04:46:26;16.00;99.90
19242;DHT22;9755;47.790;9.620;2022-08-03T04:48:56;17.00;99.90
19242;DHT22;9755;47.790;9.620;2022-08-03T04:51:24;17.80;99.90
19242;DHT22;9755;47.790;9.620;2022-08-03T04:53:51;18.70;99.90
19242;DHT22;9755;47.790;9.620;2022-08-03T04:56:18;19.40;99.90
19242;DHT22;9755;47.790;9.620;2022-08-03T04:58:46;20.10;99.90
19242;DHT22;9755;47.790;9.620;2022-08-03T05:01:13;20.60;99.90
19242;DHT22;9755;47.790;9.620;2022-08-03T05:03:41;21.20;99.90
19242;DHT22;9755;47.790;9.620;2022-08-03T05:06:08;21.90;99.90
19242;DHT22;9755;47.790;9.620;2022-08-03T05:08:36;21.90;99.90
19242;DHT22;9755;47.790;9.620;2022-08-03T05:11:03;21.90;99.90
19242;DHT22;9755;47.790;9.620;2022-08-03T05:13:30;21.90;99.90
19242;DHT22;9755;47.790;9.620;2022-08-03T05:15:57;21.70;99.90
19242;DHT22;9755;47.790;9.620;2022-08-03T05:18:24;22.50;99.90
19242;DHT22;9755;47.790;9.620;2022-08-03T05:20:53;22.90;99.90
19242;DHT22;9755;47.790;9.620;2022-08-03T05:23:20;23.40;99.90
19242;DHT22;9755;47.790;9.620;2022-08-03T05:25:47;24.10;99.90
19242;DHT22;9755;47.790;9.620;2022-08-03T05:28:14;25.00;99.90
19242;DHT22;9755;47.790;9.620;2022-08-03T05:30:41;25.60;99.90
19242;DHT22;9755;47.790;9.620;2022-08-03T05:33:08;25.90;99.90
19242;DHT22;9755;47.790;9.620;2022-08-03T05:35:36;26.40;99.90
19242;DHT22;9755;47.790;9.620;2022-08-03T05:38:05;26.90;99.90
19242;DHT22;9755;47.790;9.620;2022-08-03T05:40:32;27.40;99.90
19242;DHT22;9755;47.790;9.620;2022-08-03T05:43:00;27.10;99.90
19242;DHT22;9755;47.790;9.620;2022-08-03T05:45:27;26.10;99.90
19242;DHT22;9755;47.790;9.620;2022-08-03T05:47:54;25.80;99.90
19242;DHT22;9755;47.790;9.620;2022-08-03T05:50:22;26.30;99.90
19242;DHT22;9755;47.790;9.620;2022-08-03T05:52:49;26.50;99.90
19242;DHT22;9755;47.790;9.620;2022-08-03T05:55:18;27.10;99.90
19242;DHT22;9755;47.790;9.620;2022-08-03T05:57:45;28.20;99.90
19242;DHT22;9755;47.790;9.620;2022-08-03T06:00:13;28.80;99.90
19242;DHT22;9755;47.790;9.620;2022-08-03T06:02:41;29.50;99.90
19242;DHT22;9755;47.790;9.620;2022-08-03T06:05:08;29.80;98.60
19242;DHT22;9755;47.790;9.620;2022-08-03T06:07:36;28.80;99.20
19242;DHT22;9755;47.790;9.620;2022-08-03T06:10:04;29.10;99.20
19242;DHT22;9755;47.790;9.620;2022-08-03T06:12:33;28.10;99.60
19242;DHT22;9755;47.790;9.620;2022-08-03T06:15:01;28.50;99.90
19242;DHT22;9755;47.790;9.620;2022-08-03T06:17:29;29.50;98.70
19242;DHT22;9755;47.790;9.620;2022-08-03T06:19:56;30.20;97.50
19242;DHT22;9755;47.790;9.620;2022-08-03T06:22:23;30.80;96.00
19242;DHT22;9755;47.790;9.620;2022-08-03T06:24:50;30.90;94.90
19242;DHT22;9755;47.790;9.620;2022-08-03T06:27:18;30.90;95.00
19242;DHT22;9755;47.790;9.620;2022-08-03T06:29:46;30.60;94.40
19242;DHT22;9755;47.790;9.620;2022-08-03T06:32:13;31.00;94.40
19242;DHT22;9755;47.790;9.620;2022-08-03T06:34:41;31.30;93.60
19242;DHT22;9755;47.790;9.620;2022-08-03T06:37:08;31.60;93.00
19242;DHT22;9755;47.790;9.620;2022-08-03T06:39:36;31.70;92.20
19242;DHT22;9755;47.790;9.620;2022-08-03T06:42:03;31.50;91.80
19242;DHT22;9755;47.790;9.620;2022-08-03T06:44:31;31.00;93.10
19242;DHT22;9755;47.790;9.620;2022-08-03T06:46:59;31.50;92.20
19242;DHT22;9755;47.790;9.620;2022-08-03T06:49:26;32.20;91.70
19242;DHT22;9755;47.790;9.620;2022-08-03T06:51:53;32.50;91.00
19242;DHT22;9755;47.790;9.620;2022-08-03T06:54:21;32.60;88.80
19242;DHT22;9755;47.790;9.620;2022-08-03T06:56:49;31.80;90.00
19242;DHT22;9755;47.790;9.620;2022-08-03T06:59:16;30.90;91.20
19242;DHT22;9755;47.790;9.620;2022-08-03T07:01:43;31.20;91.40
19242;DHT22;9755;47.790;9.620;2022-08-03T07:04:11;32.80;90.40
19242;DHT22;9755;47.790;9.620;2022-08-03T07:06:38;34.10;87.00
19242;DHT22;9755;47.790;9.620;2022-08-03T07:09:06;34.20;83.70
19242;DHT22;9755;47.790;9.620;2022-08-03T07:11:33;34.10;82.80
19242;DHT22;9755;47.790;9.620;2022-08-03T07:14:00;33.00;83.80
19242;DHT22;9755;47.790;9.620;2022-08-03T07:16:27;32.60;84.60
19242;DHT22;9755;47.790;9.620;2022-08-03T07:18:54;33.20;83.40
19242;DHT22;9755;47.790;9.620;2022-08-03T07:21:22;34.30;83.70
19242;DHT22;9755;47.790;9.620;2022-08-03T07:23:49;35.50;78.80
19242;DHT22;9755;47.790;9.620;2022-08-03T07:26:16;36.10;77.50
19242;DHT22;9755;47.790;9.620;2022-08-03T07:28:44;36.10;75.30
19242;DHT22;9755;47.790;9.620;2022-08-03T07:31:11;36.50;75.10
19242;DHT22;9755;47.790;9.620;2022-08-03T07:33:38;36.40;74.60
19242;DHT22;9755;47.790;9.620;2022-08-03T07:36:05;37.40;72.60
19242;DHT22;9755;47.790;9.620;2022-08-03T07:38:34;37.90;69.60
19242;DHT22;9755;47.790;9.620;2022-08-03T07:41:02;38.20;68.10
19242;DHT22;9755;47.790;9.620;2022-08-03T07:43:29;38.80;66.00
19242;DHT22;9755;47.790;9.620;2022-08-03T07:45:56;38.50;64.30
19242;DHT22;9755;47.790;9.620;2022-08-03T07:48:23;37.70;63.90
19242;DHT22;9755;47.790;9.620;2022-08-03T07:50:50;37.00;64.40
19242;DHT22;9755;47.790;9.620;2022-08-03T07:53:17;37.10;67.50
19242;DHT22;9755;47.790;9.620;2022-08-03T07:55:46;36.70;65.40
19242;DHT22;9755;47.790;9.620;2022-08-03T07:58:13;36.40;63.40
19242;DHT22;9755;47.790;9.620;2022-08-03T08:00:42;37.30;65.40
19242;DHT22;9755;47.790;9.620;2022-08-03T08:03:10;38.20;61.70
19242;DHT22;9755;47.790;9.620;2022-08-03T08:05:38;39.20;61.10
19242;DHT22;9755;47.790;9.620;2022-08-03T08:08:05;39.90;57.80
19242;DHT22;9755;47.790;9.620;2022-08-03T08:10:33;40.40;54.70
19242;DHT22;9755;47.790;9.620;2022-08-03T08:13:02;39.30;55.00
19242;DHT22;9755;47.790;9.620;2022-08-03T08:15:30;38.80;56.60
19242;DHT22;9755;47.790;9.620;2022-08-03T08:17:58;40.00;54.50
19242;DHT22;9755;47.790;9.620;2022-08-03T08:20:27;40.40;52.70
19242;DHT22;9755;47.790;9.620;2022-08-03T08:22:56;40.30;52.70
19242;DHT22;9755;47.790;9.620;2022-08-03T08:25:23;40.60;52.30
19242;DHT22;9755;47.790;9.620;2022-08-03T08:27:51;40.60;50.10
19242;DHT22;9755;47.790;9.620;2022-08-03T08:30:21;40.40;48.50
19242;DHT22;9755;47.790;9.620;2022-08-03T08:32:49;39.90;48.40
19242;DHT22;9755;47.790;9.620;2022-08-03T08:35:17;39.70;48.40
19242;DHT22;9755;47.790;9.620;2022-08-03T08:37:44;40.80;47.00
19242;DHT22;9755;47.790;9.620;2022-08-03T08:40:12;41.10;47.30
19242;DHT22;9755;47.790;9.620;2022-08-03T08:42:40;41.60;45.00
19242;DHT22;9755;47.790;9.620;2022-08-03T08:45:08;42.20;45.10
19242;DHT22;9755;47.790;9.620;2022-08-03T08:47:39;42.30;43.40
19242;DHT22;9755;47.790;9.620;2022-08-03T08:50:07;40.20;43.30
19242;DHT22;9755;47.790;9.620;2022-08-03T08:52:38;39.00;45.30
19242;DHT22;9755;47.790;9.620;2022-08-03T08:55:07;40.10;45.30
19242;DHT22;9755;47.790;9.620;2022-08-03T08:57:36;38.10;44.30
19242;DHT22;9755;47.790;9.620;2022-08-03T09:00:06;38.80;46.90
19242;DHT22;9755;47.790;9.620;2022-08-03T09:02:36;39.50;45.00
19242;DHT22;9755;47.790;9.620;2022-08-03T09:05:04;39.60;45.20
19242;DHT22;9755;47.790;9.620;2022-08-03T09:07:31;39.60;43.90
19242;DHT22;9755;47.790;9.620;2022-08-03T09:09:58;39.10;45.70
19242;DHT22;9755;47.790;9.620;2022-08-03T09:12:26;39.40;45.50
19242;DHT22;9755;47.790;9.620;2022-08-03T09:14:54;38.60;45.90
19242;DHT22;9755;47.790;9.620;2022-08-03T09:17:21;39.20;47.70
19242;DHT22;9755;47.790;9.620;2022-08-03T09:20:05;40.40;45.90
19242;DHT22;9755;47.790;9.620;2022-08-03T09:22:33;40.90;44.60
19242;DHT22;9755;47.790;9.620;2022-08-03T09:25:04;38.60;42.70
19242;DHT22;9755;47.790;9.620;2022-08-03T09:27:41;39.60;44.10
19242;DHT22;9755;47.790;9.620;2022-08-03T09:30:13;41.30;42.40
19242;DHT22;9755;47.790;9.620;2022-08-03T09:32:40;42.50;40.20
19242;DHT22;9755;47.790;9.620;2022-08-03T09:35:12;42.80;39.30
19242;DHT22;9755;47.790;9.620;2022-08-03T09:37:40;42.90;39.10
19242;DHT22;9755;47.790;9.620;2022-08-03T09:40:08;42.50;38.80
19242;DHT22;9755;47.790;9.620;2022-08-03T09:42:35;43.10;39.50
19242;DHT22;9755;47.790;9.620;2022-08-03T09:45:04;42.90;38.60
19242;DHT22;9755;47.790;9.620;2022-08-03T09:47:34;42.70;38.50
19242;DHT22;9755;47.790;9.620;2022-08-03T09:50:04;42.20;38.20
19242;DHT22;9755;47.790;9.620;2022-08-03T09:52:35;41.00;37.70
19242;DHT22;9755;47.790;9.620;2022-08-03T09:55:07;40.90;39.00
19242;DHT22;9755;47.790;9.620;2022-08-03T09:57:35;41.20;39.10
19242;DHT22;9755;47.790;9.620;2022-08-03T10:00:07;40.90;37.40
19242;DHT22;9755;47.790;9.620;2022-08-03T10:02:37;41.80;39.00
19242;DHT22;9755;47.790;9.620;2022-08-03T10:05:05;42.70;38.30
19242;DHT22;9755;47.790;9.620;2022-08-03T10:07:43;41.50;35.80
19242;DHT22;9755;47.790;9.620;2022-08-03T10:10:11;42.30;36.80
19242;DHT22;9755;47.790;9.620;2022-08-03T10:12:39;42.70;34.90
19242;DHT22;9755;47.790;9.620;2022-08-03T10:15:07;42.60;35.70
19242;DHT22;9755;47.790;9.620;2022-08-03T10:17:35;42.70;31.50
19242;DHT22;9755;47.790;9.620;2022-08-03T10:20:03;41.00;31.00
19242;DHT22;9755;47.790;9.620;2022-08-03T10:22:32;40.70;32.50
19242;DHT22;9755;47.790;9.620;2022-08-03T10:25:03;40.50;32.30
19242;DHT22;9755;47.790;9.620;2022-08-03T10:27:33;40.50;32.80
19242;DHT22;9755;47.790;9.620;2022-08-03T10:30:03;41.50;30.30
19242;DHT22;9755;47.790;9.620;2022-08-03T10:32:33;41.40;31.50
19242;DHT22;9755;47.790;9.620;2022-08-03T10:35:04;42.30;30.70
19242;DHT22;9755;47.790;9.620;2022-08-03T10:37:33;41.20;29.10
19242;DHT22;9755;47.790;9.620;2022-08-03T10:40:06;40.30;29.40
19242;DHT22;9755;47.790;9.620;2022-08-03T10:42:34;41.40;28.70
19242;DHT22;9755;47.790;9.620;2022-08-03T10:45:05;41.80;28.80
19242;DHT22;9755;47.790;9.620;2022-08-03T10:47:34;42.60;28.90
19242;DHT22;9755;47.790;9.620;2022-08-03T10:50:02;40.40;26.30
19242;DHT22;9755;47.790;9.620;2022-08-03T10:52:30;40.20;26.70
19242;DHT22;9755;47.790;9.620;2022-08-03T10:54:57;40.20;26.60
19242;DHT22;9755;47.790;9.620;2022-08-03T10:57:48;40.10;26.00
19242;DHT22;9755;47.790;9.620;2022-08-03T11:00:16;39.10;25.60
19242;DHT22;9755;47.790;9.620;2022-08-03T11:03:03;39.20;26.10
19242;DHT22;9755;47.790;9.620;2022-08-03T11:05:32;39.60;26.40
19242;DHT22;9755;47.790;9.620;2022-08-03T11:08:28;39.10;25.80
19242;DHT22;9755;47.790;9.620;2022-08-03T11:10:58;39.60;25.20
19242;DHT22;9755;47.790;9.620;2022-08-03T11:13:29;40.40;25.60
19242;DHT22;9755;47.790;9.620;2022-08-03T11:16:01;40.90;24.20
19242;DHT22;9755;47.790;9.620;2022-08-03T11:18:28;40.60;24.90
19242;DHT22;9755;47.790;9.620;2022-08-03T11:20:57;39.60;23.70
19242;DHT22;9755;47.790;9.620;2022-08-03T11:23:42;40.80;24.90
19242;DHT22;9755;47.790;9.620;2022-08-03T11:26:13;42.10;23.70
19242;DHT22;9755;47.790;9.620;2022-08-03T11:28:44;42.30;23.10
19242;DHT22;9755;47.790;9.620;2022-08-03T11:34:22;43.10;22.00
19242;DHT22;9755;47.790;9.620;2022-08-03T11:37:17;42.50;20.00
19242;DHT22;9755;47.790;9.620;2022-08-03T11:39:47;40.40;20.10
19242;DHT22;9755;47.790;9.620;2022-08-03T11:42:42;39.60;22.60
19242;DHT22;9755;47.790;9.620;2022-08-03T11:45:13;38.30;21.70
19242;DHT22;9755;47.790;9.620;2022-08-03T11:47:40;36.70;21.70
19242;DHT22;9755;47.790;9.620;2022-08-03T11:50:09;37.60;21.80
19242;DHT22;9755;47.790;9.620;2022-08-03T11:52:39;39.00;22.50
19242;DHT22;9755;47.790;9.620;2022-08-03T11:55:24;38.30;21.40
19242;DHT22;9755;47.790;9.620;2022-08-03T11:57:51;38.90;22.70
19242;DHT22;9755;47.790;9.620;2022-08-03T12:00:28;40.10;23.30
19242;DHT22;9755;47.790;9.620;2022-08-03T12:02:57;41.20;23.30
19242;DHT22;9755;47.790;9.620;2022-08-03T12:08:29;41.00;21.50
19242;DHT22;9755;47.790;9.620;2022-08-03T12:10:58;41.60;21.40
19242;DHT22;9755;47.790;9.620;2022-08-03T12:13:25;41.60;21.40
19242;DHT22;9755;47.790;9.620;2022-08-03T12:15:56;42.10;20.50
19242;DHT22;9755;47.790;9.620;2022-08-03T12:18:24;42.00;20.20
19242;DHT22;9755;47.790;9.620;2022-08-03T12:20:52;41.90;19.30
19242;DHT22;9755;47.790;9.620;2022-08-03T12:23:28;40.50;20.10
19242;DHT22;9755;47.790;9.620;2022-08-03T12:26:00;40.30;21.30
19242;DHT22;9755;47.790;9.620;2022-08-03T12:28:28;41.10;21.10
19242;DHT22;9755;47.790;9.620;2022-08-03T12:31:00;41.20;20.60
19242;DHT22;9755;47.790;9.620;2022-08-03T12:33:28;40.40;19.80
19242;DHT22;9755;47.790;9.620;2022-08-03T12:36:04;40.00;20.10
19242;DHT22;9755;47.790;9.620;2022-08-03T12:38:33;40.60;20.20
19242;DHT22;9755;47.790;9.620;2022-08-03T12:41:03;39.90;19.30
19242;DHT22;9755;47.790;9.620;2022-08-03T12:43:31;39.60;19.60
19242;DHT22;9755;47.790;9.620;2022-08-03T12:46:11;40.60;20.80
19242;DHT22;9755;47.790;9.620;2022-08-03T12:49:04;40.30;20.30
19242;DHT22;9755;47.790;9.620;2022-08-03T12:51:33;40.70;20.50
19242;DHT22;9755;47.790;9.620;2022-08-03T12:54:01;40.20;20.90
19242;DHT22;9755;47.790;9.620;2022-08-03T12:56:29;40.30;20.00
19242;DHT22;9755;47.790;9.620;2022-08-03T12:58:56;40.60;21.00
19242;DHT22;9755;47.790;9.620;2022-08-03T13:01:24;40.60;21.30
19242;DHT22;9755;47.790;9.620;2022-08-03T13:03:53;40.60;20.00
19242;DHT22;9755;47.790;9.620;2022-08-03T13:06:21;38.60;21.10
19242;DHT22;9755;47.790;9.620;2022-08-03T13:08:59;37.50;21.40
19242;DHT22;9755;47.790;9.620;2022-08-03T13:11:27;38.20;20.70
19242;DHT22;9755;47.790;9.620;2022-08-03T13:13:54;38.00;20.20
19242;DHT22;9755;47.790;9.620;2022-08-03T13:16:23;38.00;21.80
19242;DHT22;9755;47.790;9.620;2022-08-03T13:18:51;37.90;20.90
19242;DHT22;9755;47.790;9.620;2022-08-03T13:21:19;37.40;19.80
19242;DHT22;9755;47.790;9.620;2022-08-03T13:23:46;37.40;19.20
19242;DHT22;9755;47.790;9.620;2022-08-03T13:26:14;38.10;21.10
19242;DHT22;9755;47.790;9.620;2022-08-03T13:28:41;38.70;20.60
19242;DHT22;9755;47.790;9.620;2022-08-03T13:31:08;39.00;20.70
19242;DHT22;9755;47.790;9.620;2022-08-03T13:33:36;39.40;20.20
19242;DHT22;9755;47.790;9.620;2022-08-03T13:36:05;39.40;20.40
19242;DHT22;9755;47.790;9.620;2022-08-03T13:38:33;39.30;19.80
19242;DHT22;9755;47.790;9.620;2022-08-03T13:41:01;39.50;19.40
19242;DHT22;9755;47.790;9.620;2022-08-03T13:43:29;39.00;18.50
19242;DHT22;9755;47.790;9.620;2022-08-03T13:45:56;38.80;20.00
19242;DHT22;9755;47.790;9.620;2022-08-03T13:48:23;38.20;19.70
19242;DHT22;9755;47.790;9.620;2022-08-03T13:50:51;37.90;20.90
19242;DHT22;9755;47.790;9.620;2022-08-03T13:53:18;38.60;20.50
19242;DHT22;9755;47.790;9.620;2022-08-03T13:55:45;38.50;19.10
19242;DHT22;9755;47.790;9.620;2022-08-03T13:58:12;37.90;19.30
19242;DHT22;9755;47.790;9.620;2022-08-03T14:00:39;38.20;19.10
19242;DHT22;9755;47.790;9.620;2022-08-03T14:03:07;38.20;19.30
19242;DHT22;9755;47.790;9.620;2022-08-03T14:05:34;37.90;19.50
19242;DHT22;9755;47.790;9.620;2022-08-03T14:08:05;37.90;19.60
19242;DHT22;9755;47.790;9.620;2022-08-03T14:10:34;38.00;20.40
19242;DHT22;9755;47.790;9.620;2022-08-03T14:13:01;37.90;19.40
19242;DHT22;9755;47.790;9.620;2022-08-03T14:15:29;37.80;19.80
19242;DHT22;9755;47.790;9.620;2022-08-03T14:17:56;37.90;20.40
19242;DHT22;9755;47.790;9.620;2022-08-03T14:20:24;37.60;19.60
19242;DHT22;9755;47.790;9.620;2022-08-03T14:22:51;37.60;19.70
19242;DHT22;9755;47.790;9.620;2022-08-03T14:25:19;37.80;19.80
19242;DHT22;9755;47.790;9.620;2022-08-03T14:27:46;37.80;19.50
19242;DHT22;9755;47.790;9.620;2022-08-03T14:30:14;37.60;19.30
19242;DHT22;9755;47.790;9.620;2022-08-03T14:32:41;37.50;19.20
19242;DHT22;9755;47.790;9.620;2022-08-03T14:35:08;37.50;20.00
19242;DHT22;9755;47.790;9.620;2022-08-03T14:37:35;37.80;20.00
19242;DHT22;9755;47.790;9.620;2022-08-03T14:40:03;37.60;20.30
19242;DHT22;9755;47.790;9.620;2022-08-03T14:42:32;37.40;19.80
19242;DHT22;9755;47.790;9.620;2022-08-03T14:44:59;37.60;20.40
19242;DHT22;9755;47.790;9.620;2022-08-03T14:47:26;37.60;19.40
19242;DHT22;9755;47.790;9.620;2022-08-03T14:49:53;37.20;20.00
19242;DHT22;9755;47.790;9.620;2022-08-03T14:52:20;37.10;20.60
19242;DHT22;9755;47.790;9.620;2022-08-03T14:54:47;37.40;20.90
19242;DHT22;9755;47.790;9.620;2022-08-03T14:57:15;37.60;21.50
19242;DHT22;9755;47.790;9.620;2022-08-03T14:59:43;37.70;21.40
19242;DHT22;9755;47.790;9.620;2022-08-03T15:02:10;37.70;21.10
19242;DHT22;9755;47.790;9.620;2022-08-03T15:04:37;37.30;20.60
19242;DHT22;9755;47.790;9.620;2022-08-03T15:07:05;36.80;20.50
19242;DHT22;9755;47.790;9.620;2022-08-03T15:09:32;36.90;20.40
19242;DHT22;9755;47.790;9.620;2022-08-03T15:11:59;37.10;20.80
19242;DHT22;9755;47.790;9.620;2022-08-03T15:14:26;37.20;20.80
19242;DHT22;9755;47.790;9.620;2022-08-03T15:16:55;36.70;20.40
19242;DHT22;9755;47.790;9.620;2022-08-03T15:19:22;36.70;21.30
19242;DHT22;9755;47.790;9.620;2022-08-03T15:21:49;37.00;21.70
19242;DHT22;9755;47.790;9.620;2022-08-03T15:24:16;36.90;20.60
19242;DHT22;9755;47.790;9.620;2022-08-03T15:26:43;36.70;21.00
19242;DHT22;9755;47.790;9.620;2022-08-03T15:29:10;36.80;21.20
19242;DHT22;9755;47.790;9.620;2022-08-03T15:31:38;36.70;21.60
19242;DHT22;9755;47.790;9.620;2022-08-03T15:34:07;36.80;21.50
19242;DHT22;9755;47.790;9.620;2022-08-03T15:36:34;36.90;21.10
19242;DHT22;9755;47.790;9.620;2022-08-03T15:39:01;36.70;21.80
19242;DHT22;9755;47.790;9.620;2022-08-03T15:41:28;36.40;21.20
19242;DHT22;9755;47.790;9.620;2022-08-03T15:43:55;36.80;21.70
19242;DHT22;9755;47.790;9.620;2022-08-03T15:46:22;36.90;21.00
19242;DHT22;9755;47.790;9.620;2022-08-03T15:48:49;36.80;21.00
19242;DHT22;9755;47.790;9.620;2022-08-03T15:51:18;36.80;20.20
19242;DHT22;9755;47.790;9.620;2022-08-03T15:53:45;36.90;20.40
19242;DHT22;9755;47.790;9.620;2022-08-03T15:56:12;36.70;20.90
19242;DHT22;9755;47.790;9.620;2022-08-03T15:58:39;36.10;20.80
19242;DHT22;9755;47.790;9.620;2022-08-03T16:01:06;36.20;21.10
19242;DHT22;9755;47.790;9.620;2022-08-03T16:03:33;36.30;20.90